SVA481 FMCH-FIMP
Flight info
| Callsign | SVA481 |
|---|---|
| Flight time | 2h 19m |
| Altitude | 39000 |
| Route | FMCH/02 N0484F390 DCT HAI UB790 OKDOP UA400 RASMA RASM2E FIMP/14 |
| Aircraft | A35K/H-SDE2E3GHIJ3J4J5LM1ORWXY/LB1D1 |
Departure
| Time | 2026-04-27 02:13 |
|---|---|
| Airport | Prince Said Ibrahim International Airport (FMCH) |
Arrival
| Time | 2026-04-27 04:33 |
|---|---|
| Airport | Sir Seewoosagur Ramgoolam International Airport (FIMP) |
| Time | Latitude | Longitude | Altitude | Speed | Heading |
|---|---|---|---|---|---|
| 2026-04-27 02:02 | -11.53692 | 43.27398 | 56 ft | 0 kts | 96° |
| 2026-04-27 02:09 | -11.53682 | 43.27381 | 56 ft | 4 kts | 213° |
| 2026-04-27 02:10 | -11.53680 | 43.27379 | 56 ft | 9 kts | 250° |
| 2026-04-27 02:10 | -11.53677 | 43.27264 | 57 ft | 21 kts | 279° |
| 2026-04-27 02:10 | -11.53594 | 43.27142 | 57 ft | 32 kts | 346° |
| 2026-04-27 02:10 | -11.53266 | 43.27210 | 64 ft | 65 kts | 10° |
| 2026-04-27 02:11 | -11.52727 | 43.27307 | 61 ft | 85 kts | 9° |
| 2026-04-27 02:11 | -11.52348 | 43.27367 | 59 ft | 39 kts | 10° |
| 2026-04-27 02:11 | -11.52261 | 43.27391 | 72 ft | 6 kts | 18° |
| 2026-04-27 02:11 | -11.52148 | 43.27453 | 98 ft | 19 kts | 28° |
| 2026-04-27 02:12 | -11.52101 | 43.27443 | 95 ft | 4 kts | 251° |
| 2026-04-27 02:12 | -11.52151 | 43.27409 | 94 ft | 10 kts | 195° |
| 2026-04-27 02:12 | -11.52256 | 43.27387 | 81 ft | 34 kts | 190° |
| 2026-04-27 02:12 | -11.52746 | 43.27302 | 62 ft | 103 kts | 189° |
| 2026-04-27 02:13 | -11.53635 | 43.27146 | 59 ft | 155 kts | 189° |
| 2026-04-27 02:13 | -11.54775 | 43.26946 | 379 ft | 177 kts | 189° |
| 2026-04-27 02:13 | -11.56077 | 43.26748 | 756 ft | 201 kts | 187° |
| 2026-04-27 02:13 | -11.57455 | 43.26789 | 1473 ft | 198 kts | 168° |
| 2026-04-27 02:14 | -11.58719 | 43.27438 | 1742 ft | 216 kts | 140° |
| 2026-04-27 02:14 | -11.59753 | 43.28632 | 1937 ft | 237 kts | 130° |
| 2026-04-27 02:14 | -11.60759 | 43.30019 | 2261 ft | 249 kts | 127° |
| 2026-04-27 02:14 | -11.61785 | 43.31479 | 2647 ft | 256 kts | 128° |
| 2026-04-27 02:15 | -11.62829 | 43.32956 | 3075 ft | 257 kts | 128° |
| 2026-04-27 02:15 | -11.63889 | 43.34428 | 3583 ft | 260 kts | 128° |
| 2026-04-27 02:15 | -11.64973 | 43.35927 | 4092 ft | 265 kts | 127° |
| 2026-04-27 02:15 | -11.66068 | 43.37445 | 4597 ft | 265 kts | 127° |
| 2026-04-27 02:16 | -11.67172 | 43.38990 | 5098 ft | 274 kts | 126° |
| 2026-04-27 02:16 | -11.68297 | 43.40541 | 5608 ft | 270 kts | 127° |
| 2026-04-27 02:16 | -11.69438 | 43.42088 | 6124 ft | 275 kts | 128° |
| 2026-04-27 02:16 | -11.70596 | 43.43664 | 6621 ft | 281 kts | 127° |
| 2026-04-27 02:17 | -11.71779 | 43.45279 | 7108 ft | 286 kts | 127° |
| 2026-04-27 02:17 | -11.72975 | 43.46917 | 7603 ft | 290 kts | 127° |
| 2026-04-27 02:17 | -11.74190 | 43.48586 | 8107 ft | 295 kts | 127° |
| 2026-04-27 02:17 | -11.75427 | 43.50282 | 8618 ft | 300 kts | 127° |
| 2026-04-27 02:18 | -11.76671 | 43.51990 | 9135 ft | 305 kts | 128° |
| 2026-04-27 02:18 | -11.77944 | 43.53736 | 9659 ft | 309 kts | 127° |
| 2026-04-27 02:18 | -11.79235 | 43.55510 | 10156 ft | 313 kts | 128° |
| 2026-04-27 02:18 | -11.80540 | 43.57304 | 10641 ft | 316 kts | 128° |
| 2026-04-27 02:19 | -11.81858 | 43.59116 | 11134 ft | 319 kts | 128° |
| 2026-04-27 02:19 | -11.83188 | 43.60944 | 11632 ft | 322 kts | 128° |
| 2026-04-27 02:19 | -11.84528 | 43.62788 | 12140 ft | 324 kts | 128° |
| 2026-04-27 02:19 | -11.85877 | 43.64643 | 12659 ft | 326 kts | 128° |
| 2026-04-27 02:20 | -11.87233 | 43.66508 | 13190 ft | 328 kts | 127° |
| 2026-04-27 02:20 | -11.88595 | 43.68382 | 13715 ft | 329 kts | 128° |
| 2026-04-27 02:20 | -11.89961 | 43.70263 | 14193 ft | 329 kts | 127° |
| 2026-04-27 02:20 | -11.91324 | 43.72139 | 14669 ft | 330 kts | 127° |
| 2026-04-27 02:21 | -11.92692 | 43.74021 | 15153 ft | 330 kts | 127° |
| 2026-04-27 02:21 | -11.94060 | 43.75905 | 15644 ft | 330 kts | 127° |
| 2026-04-27 02:21 | -11.95427 | 43.77787 | 16144 ft | 330 kts | 127° |
| 2026-04-27 02:21 | -11.96792 | 43.79667 | 16655 ft | 329 kts | 127° |
| 2026-04-27 02:22 | -11.98156 | 43.81547 | 17177 ft | 328 kts | 127° |
| 2026-04-27 02:22 | -11.99513 | 43.83416 | 17700 ft | 327 kts | 127° |
| 2026-04-27 02:22 | -12.00408 | 43.84650 | 18056 ft | 325 kts | 127° |
| 2026-04-27 02:22 | -12.02184 | 43.87098 | 18691 ft | 322 kts | 127° |
| 2026-04-27 02:23 | -12.03513 | 43.88931 | 19160 ft | 319 kts | 127° |
| 2026-04-27 02:23 | -12.04829 | 43.90745 | 19638 ft | 316 kts | 127° |
| 2026-04-27 02:23 | -12.06128 | 43.92538 | 20122 ft | 312 kts | 127° |
| 2026-04-27 02:23 | -12.06997 | 43.93736 | 20461 ft | 309 kts | 127° |
| 2026-04-27 02:24 | -12.08262 | 43.95482 | 20953 ft | 303 kts | 127° |
| 2026-04-27 02:24 | -12.09513 | 43.97208 | 21301 ft | 304 kts | 127° |
| 2026-04-27 02:24 | -12.10787 | 43.98965 | 21330 ft | 317 kts | 127° |
| 2026-04-27 02:24 | -12.12128 | 44.00816 | 21323 ft | 330 kts | 127° |
| 2026-04-27 02:25 | -12.13525 | 44.02746 | 21310 ft | 344 kts | 127° |
| 2026-04-27 02:25 | -12.14976 | 44.04749 | 21303 ft | 357 kts | 127° |
| 2026-04-27 02:25 | -12.16481 | 44.06827 | 21297 ft | 370 kts | 127° |
| 2026-04-27 02:25 | -12.18042 | 44.08984 | 21286 ft | 383 kts | 127° |
| 2026-04-27 02:26 | -12.19629 | 44.11176 | 21266 ft | 395 kts | 127° |
| 2026-04-27 02:26 | -12.21285 | 44.13465 | 21254 ft | 406 kts | 127° |
| 2026-04-27 02:26 | -12.22993 | 44.15825 | 21246 ft | 417 kts | 127° |
| 2026-04-27 02:26 | -12.24741 | 44.18241 | 21244 ft | 428 kts | 127° |
| 2026-04-27 02:27 | -12.26529 | 44.20716 | 21235 ft | 437 kts | 127° |
| 2026-04-27 02:27 | -12.28349 | 44.23234 | 21227 ft | 441 kts | 127° |
| 2026-04-27 02:27 | -12.30176 | 44.25762 | 21226 ft | 441 kts | 127° |
| 2026-04-27 02:27 | -12.31973 | 44.28249 | 21226 ft | 440 kts | 127° |
| 2026-04-27 02:28 | -12.33797 | 44.30776 | 21231 ft | 443 kts | 127° |
| 2026-04-27 02:28 | -12.35635 | 44.33320 | 21286 ft | 445 kts | 127° |
| 2026-04-27 02:28 | -12.37478 | 44.35875 | 21507 ft | 445 kts | 127° |
| 2026-04-27 02:28 | -12.39301 | 44.38400 | 22113 ft | 438 kts | 127° |
| 2026-04-27 02:29 | -12.41110 | 44.40907 | 22500 ft | 438 kts | 127° |
| 2026-04-27 02:29 | -12.42921 | 44.43418 | 22785 ft | 440 kts | 127° |
| 2026-04-27 02:29 | -12.44720 | 44.45914 | 23036 ft | 441 kts | 127° |
| 2026-04-27 02:29 | -12.46520 | 44.48411 | 23336 ft | 441 kts | 127° |
| 2026-04-27 02:30 | -12.48344 | 44.50943 | 23568 ft | 444 kts | 127° |
| 2026-04-27 02:30 | -12.50186 | 44.53500 | 23713 ft | 447 kts | 127° |
| 2026-04-27 02:30 | -12.52037 | 44.56070 | 23959 ft | 448 kts | 127° |
| 2026-04-27 02:30 | -12.53890 | 44.58642 | 24149 ft | 450 kts | 127° |
| 2026-04-27 02:31 | -12.55753 | 44.61230 | 24371 ft | 451 kts | 127° |
| 2026-04-27 02:31 | -12.57593 | 44.63787 | 24572 ft | 453 kts | 127° |
| 2026-04-27 02:31 | -12.59487 | 44.66419 | 24756 ft | 455 kts | 127° |
| 2026-04-27 02:31 | -12.61347 | 44.69005 | 24944 ft | 457 kts | 127° |
| 2026-04-27 02:32 | -12.63234 | 44.71630 | 25135 ft | 459 kts | 127° |
| 2026-04-27 02:32 | -12.65129 | 44.74266 | 25333 ft | 460 kts | 127° |
| 2026-04-27 02:32 | -12.67031 | 44.76912 | 25524 ft | 462 kts | 127° |
| 2026-04-27 02:32 | -12.68940 | 44.79569 | 25717 ft | 464 kts | 127° |
| 2026-04-27 02:33 | -12.70857 | 44.82238 | 25924 ft | 466 kts | 127° |
| 2026-04-27 02:33 | -12.72781 | 44.84917 | 26130 ft | 468 kts | 128° |
| 2026-04-27 02:33 | -12.74717 | 44.87614 | 26331 ft | 470 kts | 128° |
| 2026-04-27 02:33 | -12.76655 | 44.90315 | 26526 ft | 472 kts | 128° |
| 2026-04-27 02:34 | -12.78602 | 44.93029 | 26707 ft | 474 kts | 128° |
| 2026-04-27 02:34 | -12.80560 | 44.95759 | 26881 ft | 477 kts | 128° |
| 2026-04-27 02:34 | -12.82530 | 44.98507 | 26929 ft | 477 kts | 128° |
| 2026-04-27 02:34 | -12.84469 | 45.01212 | 26925 ft | 477 kts | 128° |
| 2026-04-27 02:35 | -12.86432 | 45.03953 | 26922 ft | 477 kts | 128° |
| 2026-04-27 02:35 | -12.88401 | 45.06701 | 26922 ft | 477 kts | 128° |
| 2026-04-27 02:35 | -12.90368 | 45.09447 | 26919 ft | 477 kts | 128° |
| 2026-04-27 02:35 | -12.92338 | 45.12199 | 26919 ft | 478 kts | 128° |
| 2026-04-27 02:36 | -12.94307 | 45.14950 | 26921 ft | 478 kts | 128° |
| 2026-04-27 02:36 | -12.96267 | 45.17690 | 26917 ft | 477 kts | 128° |
| 2026-04-27 02:36 | -12.98236 | 45.20443 | 26919 ft | 477 kts | 128° |
| 2026-04-27 02:36 | -13.00177 | 45.23158 | 26919 ft | 477 kts | 128° |
| 2026-04-27 02:37 | -13.02149 | 45.25917 | 26920 ft | 477 kts | 128° |
| 2026-04-27 02:37 | -13.04112 | 45.28665 | 26922 ft | 478 kts | 128° |
| 2026-04-27 02:37 | -13.06081 | 45.31420 | 26926 ft | 477 kts | 128° |
| 2026-04-27 02:37 | -13.08043 | 45.34168 | 26926 ft | 477 kts | 128° |
| 2026-04-27 02:38 | -13.10010 | 45.36923 | 26930 ft | 478 kts | 128° |
| 2026-04-27 02:38 | -13.11946 | 45.39636 | 26928 ft | 478 kts | 128° |
| 2026-04-27 02:38 | -13.13908 | 45.42387 | 26930 ft | 478 kts | 128° |
| 2026-04-27 02:38 | -13.15871 | 45.45138 | 26930 ft | 478 kts | 128° |
| 2026-04-27 02:39 | -13.17834 | 45.47891 | 26933 ft | 478 kts | 128° |
| 2026-04-27 02:39 | -13.19797 | 45.50645 | 26933 ft | 478 kts | 128° |
| 2026-04-27 02:39 | -13.21759 | 45.53399 | 26933 ft | 478 kts | 128° |
| 2026-04-27 02:39 | -13.23726 | 45.56160 | 26933 ft | 478 kts | 128° |
| 2026-04-27 02:40 | -13.25692 | 45.58921 | 26931 ft | 478 kts | 127° |
| 2026-04-27 02:40 | -13.27658 | 45.61682 | 26933 ft | 478 kts | 127° |
| 2026-04-27 02:40 | -13.29597 | 45.64406 | 26933 ft | 478 kts | 127° |
| 2026-04-27 02:40 | -13.31557 | 45.67161 | 26933 ft | 478 kts | 127° |
| 2026-04-27 02:41 | -13.33516 | 45.69916 | 26933 ft | 478 kts | 127° |
| 2026-04-27 02:41 | -13.35480 | 45.72677 | 26933 ft | 478 kts | 127° |
| 2026-04-27 02:41 | -13.37438 | 45.75432 | 26933 ft | 478 kts | 127° |
| 2026-04-27 02:41 | -13.39397 | 45.78188 | 26934 ft | 478 kts | 127° |
| 2026-04-27 02:42 | -13.41355 | 45.80945 | 26933 ft | 478 kts | 127° |
| 2026-04-27 02:42 | -13.43317 | 45.83709 | 26933 ft | 478 kts | 127° |
| 2026-04-27 02:42 | -13.45275 | 45.86467 | 26936 ft | 478 kts | 127° |
| 2026-04-27 02:42 | -13.47233 | 45.89226 | 26936 ft | 478 kts | 127° |
| 2026-04-27 02:43 | -13.49188 | 45.91981 | 26930 ft | 478 kts | 127° |
| 2026-04-27 02:43 | -13.51152 | 45.94750 | 26935 ft | 478 kts | 127° |
| 2026-04-27 02:43 | -13.53107 | 45.97507 | 26934 ft | 478 kts | 127° |
| 2026-04-27 02:43 | -13.55044 | 46.00240 | 26935 ft | 478 kts | 127° |
| 2026-04-27 02:44 | -13.57001 | 46.03003 | 26932 ft | 478 kts | 127° |
| 2026-04-27 02:44 | -13.58958 | 46.05765 | 26933 ft | 478 kts | 127° |
| 2026-04-27 02:44 | -13.60916 | 46.08531 | 26933 ft | 478 kts | 127° |
| 2026-04-27 02:44 | -13.62872 | 46.11293 | 26933 ft | 478 kts | 127° |
| 2026-04-27 02:45 | -13.64830 | 46.14060 | 26936 ft | 478 kts | 127° |
| 2026-04-27 02:45 | -13.66790 | 46.16831 | 26933 ft | 479 kts | 127° |
| 2026-04-27 02:45 | -13.68770 | 46.19630 | 26932 ft | 490 kts | 127° |
| 2026-04-27 02:45 | -13.70802 | 46.22502 | 26929 ft | 500 kts | 127° |
| 2026-04-27 02:46 | -13.72858 | 46.25411 | 26930 ft | 505 kts | 127° |
| 2026-04-27 02:46 | -13.74929 | 46.28344 | 26931 ft | 506 kts | 127° |
| 2026-04-27 02:46 | -13.76974 | 46.31240 | 26935 ft | 506 kts | 127° |
| 2026-04-27 02:46 | -13.79040 | 46.34167 | 26936 ft | 505 kts | 127° |
| 2026-04-27 02:47 | -13.81134 | 46.37134 | 26936 ft | 505 kts | 127° |
| 2026-04-27 02:47 | -13.83171 | 46.40022 | 26936 ft | 505 kts | 127° |
| 2026-04-27 02:47 | -13.85236 | 46.42949 | 26936 ft | 505 kts | 127° |
| 2026-04-27 02:47 | -13.87300 | 46.45877 | 26936 ft | 505 kts | 127° |
| 2026-04-27 02:48 | -13.89364 | 46.48805 | 26937 ft | 505 kts | 127° |
| 2026-04-27 02:48 | -13.91428 | 46.51735 | 26935 ft | 505 kts | 127° |
| 2026-04-27 02:48 | -13.93491 | 46.54665 | 26935 ft | 505 kts | 127° |
| 2026-04-27 02:48 | -13.95555 | 46.57596 | 26935 ft | 505 kts | 127° |
| 2026-04-27 02:49 | -13.97617 | 46.60527 | 26935 ft | 505 kts | 127° |
| 2026-04-27 02:49 | -13.99687 | 46.63469 | 26935 ft | 505 kts | 127° |
| 2026-04-27 02:49 | -14.01748 | 46.66399 | 26936 ft | 505 kts | 127° |
| 2026-04-27 02:49 | -14.03807 | 46.69329 | 26936 ft | 505 kts | 127° |
| 2026-04-27 02:50 | -14.05867 | 46.72259 | 26936 ft | 505 kts | 127° |
| 2026-04-27 02:50 | -14.07908 | 46.75164 | 26935 ft | 505 kts | 127° |
| 2026-04-27 02:50 | -14.09971 | 46.78102 | 26935 ft | 505 kts | 127° |
| 2026-04-27 02:50 | -14.12029 | 46.81033 | 26936 ft | 505 kts | 127° |
| 2026-04-27 02:51 | -14.14082 | 46.83959 | 26938 ft | 505 kts | 127° |
| 2026-04-27 02:51 | -14.16140 | 46.86892 | 26938 ft | 505 kts | 127° |
| 2026-04-27 02:51 | -14.18197 | 46.89825 | 26937 ft | 505 kts | 127° |
| 2026-04-27 02:51 | -14.20259 | 46.92766 | 26936 ft | 505 kts | 127° |
| 2026-04-27 02:52 | -14.22311 | 46.95694 | 26936 ft | 505 kts | 127° |
| 2026-04-27 02:52 | -14.24366 | 46.98628 | 26934 ft | 505 kts | 127° |
| 2026-04-27 02:52 | -14.26424 | 47.01566 | 26935 ft | 504 kts | 127° |
| 2026-04-27 02:52 | -14.28458 | 47.04472 | 26936 ft | 504 kts | 127° |
| 2026-04-27 02:53 | -14.30510 | 47.07403 | 26935 ft | 504 kts | 127° |
| 2026-04-27 02:53 | -14.32569 | 47.10347 | 26933 ft | 504 kts | 127° |
| 2026-04-27 02:53 | -14.34619 | 47.13280 | 26933 ft | 504 kts | 127° |
| 2026-04-27 02:53 | -14.36672 | 47.16217 | 26930 ft | 504 kts | 127° |
| 2026-04-27 02:54 | -14.38723 | 47.19151 | 26932 ft | 504 kts | 127° |
| 2026-04-27 02:54 | -14.40773 | 47.22086 | 26933 ft | 504 kts | 127° |
| 2026-04-27 02:54 | -14.42828 | 47.25028 | 26933 ft | 504 kts | 127° |
| 2026-04-27 02:54 | -14.44854 | 47.27931 | 26933 ft | 504 kts | 127° |
| 2026-04-27 02:55 | -14.46899 | 47.30861 | 26931 ft | 504 kts | 127° |
| 2026-04-27 02:55 | -14.48952 | 47.33805 | 26930 ft | 504 kts | 127° |
| 2026-04-27 02:55 | -14.51001 | 47.36743 | 26930 ft | 504 kts | 127° |
| 2026-04-27 02:55 | -14.53054 | 47.39688 | 26934 ft | 504 kts | 127° |
| 2026-04-27 02:56 | -14.55101 | 47.42627 | 26935 ft | 504 kts | 127° |
| 2026-04-27 02:56 | -14.57148 | 47.45565 | 26936 ft | 504 kts | 127° |
| 2026-04-27 02:56 | -14.59199 | 47.48510 | 26936 ft | 504 kts | 127° |
| 2026-04-27 02:56 | -14.61244 | 47.51449 | 26938 ft | 504 kts | 127° |
| 2026-04-27 02:57 | -14.63266 | 47.54355 | 26935 ft | 504 kts | 127° |
| 2026-04-27 02:57 | -14.65310 | 47.57294 | 26936 ft | 504 kts | 127° |
| 2026-04-27 02:57 | -14.67349 | 47.60226 | 26934 ft | 504 kts | 127° |
| 2026-04-27 02:57 | -14.69396 | 47.63172 | 26938 ft | 503 kts | 127° |
| 2026-04-27 02:58 | -14.71451 | 47.66130 | 26937 ft | 503 kts | 127° |
| 2026-04-27 02:58 | -14.73469 | 47.69036 | 26936 ft | 503 kts | 127° |
| 2026-04-27 02:58 | -14.75515 | 47.71982 | 26938 ft | 503 kts | 127° |
| 2026-04-27 02:58 | -14.77555 | 47.74922 | 26938 ft | 503 kts | 127° |
| 2026-04-27 02:59 | -14.79595 | 47.77863 | 26941 ft | 503 kts | 127° |
| 2026-04-27 02:59 | -14.81634 | 47.80803 | 26945 ft | 503 kts | 127° |
| 2026-04-27 02:59 | -14.83673 | 47.83744 | 26946 ft | 503 kts | 127° |
| 2026-04-27 02:59 | -14.85714 | 47.86690 | 26947 ft | 503 kts | 127° |
| 2026-04-27 03:00 | -14.87750 | 47.89629 | 26951 ft | 503 kts | 127° |
| 2026-04-27 03:00 | -14.89785 | 47.92568 | 26952 ft | 503 kts | 127° |
| 2026-04-27 03:00 | -14.91820 | 47.95508 | 26952 ft | 503 kts | 127° |
| 2026-04-27 03:00 | -14.93855 | 47.98449 | 26955 ft | 503 kts | 127° |
| 2026-04-27 03:01 | -14.95890 | 48.01391 | 26953 ft | 503 kts | 127° |
| 2026-04-27 03:01 | -14.97924 | 48.04332 | 26952 ft | 503 kts | 127° |
| 2026-04-27 03:01 | -14.99956 | 48.07273 | 26960 ft | 502 kts | 126° |
| 2026-04-27 03:01 | -15.01969 | 48.10186 | 26958 ft | 502 kts | 126° |
| 2026-04-27 03:02 | -15.03999 | 48.13126 | 26958 ft | 502 kts | 126° |
| 2026-04-27 03:02 | -15.06024 | 48.16059 | 26963 ft | 502 kts | 126° |
| 2026-04-27 03:02 | -15.08057 | 48.19006 | 26963 ft | 502 kts | 126° |
| 2026-04-27 03:02 | -15.10086 | 48.21947 | 26963 ft | 502 kts | 126° |
| 2026-04-27 03:03 | -15.12115 | 48.24889 | 26969 ft | 502 kts | 126° |
| 2026-04-27 03:03 | -15.16173 | 48.30778 | 26968 ft | 502 kts | 126° |
| 2026-04-27 03:03 | -15.18200 | 48.33720 | 26977 ft | 502 kts | 126° |
| 2026-04-27 03:04 | -15.20203 | 48.36630 | 26979 ft | 502 kts | 126° |
| 2026-04-27 03:04 | -15.22233 | 48.39579 | 26987 ft | 502 kts | 126° |
| 2026-04-27 03:04 | -15.24258 | 48.42522 | 26988 ft | 502 kts | 126° |
| 2026-04-27 03:04 | -15.26283 | 48.45466 | 26987 ft | 502 kts | 126° |
| 2026-04-27 03:05 | -15.28304 | 48.48406 | 26996 ft | 502 kts | 126° |
| 2026-04-27 03:05 | -15.30332 | 48.51357 | 26996 ft | 501 kts | 126° |
| 2026-04-27 03:05 | -15.32350 | 48.54295 | 26993 ft | 501 kts | 126° |
| 2026-04-27 03:05 | -15.34377 | 48.57245 | 27001 ft | 501 kts | 126° |
| 2026-04-27 03:06 | -15.36398 | 48.60190 | 27003 ft | 502 kts | 126° |
| 2026-04-27 03:06 | -15.38417 | 48.63132 | 27001 ft | 502 kts | 126° |
| 2026-04-27 03:06 | -15.40439 | 48.66080 | 27010 ft | 502 kts | 126° |
| 2026-04-27 03:06 | -15.42461 | 48.69028 | 27009 ft | 502 kts | 126° |
| 2026-04-27 03:07 | -15.44482 | 48.71977 | 27010 ft | 502 kts | 126° |
| 2026-04-27 03:07 | -15.46502 | 48.74927 | 27019 ft | 502 kts | 126° |
| 2026-04-27 03:07 | -15.48523 | 48.77878 | 27018 ft | 502 kts | 126° |
| 2026-04-27 03:07 | -15.50542 | 48.80828 | 27018 ft | 502 kts | 126° |
| 2026-04-27 03:08 | -15.52566 | 48.83785 | 27022 ft | 502 kts | 126° |
| 2026-04-27 03:08 | -15.54562 | 48.86702 | 27023 ft | 501 kts | 126° |
| 2026-04-27 03:08 | -15.56584 | 48.89660 | 27024 ft | 502 kts | 126° |
| 2026-04-27 03:08 | -15.58606 | 48.92618 | 27031 ft | 501 kts | 126° |
| 2026-04-27 03:09 | -15.60623 | 48.95569 | 27032 ft | 501 kts | 126° |
| 2026-04-27 03:09 | -15.62643 | 48.98528 | 27029 ft | 501 kts | 126° |
| 2026-04-27 03:09 | -15.64659 | 49.01481 | 27029 ft | 502 kts | 126° |
| 2026-04-27 03:09 | -15.66676 | 49.04436 | 27029 ft | 502 kts | 126° |
| 2026-04-27 03:10 | -15.68670 | 49.07360 | 27028 ft | 502 kts | 126° |
| 2026-04-27 03:10 | -15.70686 | 49.10317 | 27033 ft | 502 kts | 126° |
| 2026-04-27 03:10 | -15.72702 | 49.13274 | 27034 ft | 501 kts | 126° |
| 2026-04-27 03:10 | -15.74725 | 49.16242 | 27034 ft | 501 kts | 126° |
| 2026-04-27 03:11 | -15.76055 | 49.18195 | 27033 ft | 501 kts | 126° |
| 2026-04-27 03:11 | -15.78072 | 49.21157 | 27031 ft | 501 kts | 126° |
| 2026-04-27 03:11 | -15.80085 | 49.24115 | 27033 ft | 501 kts | 126° |
| 2026-04-27 03:11 | -15.82755 | 49.28039 | 27025 ft | 502 kts | 126° |
| 2026-04-27 03:12 | -15.84114 | 49.30037 | 27027 ft | 502 kts | 126° |
| 2026-04-27 03:12 | -15.86127 | 49.32999 | 27029 ft | 502 kts | 126° |
| 2026-04-27 03:12 | -15.88147 | 49.35971 | 27021 ft | 502 kts | 126° |
| 2026-04-27 03:12 | -15.90160 | 49.38935 | 27020 ft | 502 kts | 126° |
| 2026-04-27 03:13 | -15.92146 | 49.41860 | 27020 ft | 502 kts | 126° |
| 2026-04-27 03:13 | -15.94186 | 49.44865 | 27009 ft | 502 kts | 126° |
| 2026-04-27 03:13 | -15.96179 | 49.47802 | 27007 ft | 502 kts | 126° |
| 2026-04-27 03:13 | -15.98196 | 49.50776 | 27007 ft | 502 kts | 126° |
| 2026-04-27 03:14 | -16.00207 | 49.53743 | 26998 ft | 502 kts | 126° |
| 2026-04-27 03:14 | -16.02219 | 49.56711 | 26999 ft | 502 kts | 126° |
| 2026-04-27 03:14 | -16.04231 | 49.59682 | 26999 ft | 502 kts | 126° |
| 2026-04-27 03:14 | -16.06242 | 49.62652 | 26990 ft | 502 kts | 126° |
| 2026-04-27 03:15 | -16.08257 | 49.65630 | 26991 ft | 502 kts | 126° |
| 2026-04-27 03:15 | -16.10264 | 49.68595 | 26990 ft | 502 kts | 126° |
| 2026-04-27 03:15 | -16.12256 | 49.71541 | 26980 ft | 502 kts | 126° |
| 2026-04-27 03:15 | -16.14266 | 49.74515 | 26979 ft | 502 kts | 126° |
| 2026-04-27 03:16 | -16.16275 | 49.77488 | 26975 ft | 502 kts | 126° |
| 2026-04-27 03:16 | -16.18288 | 49.80467 | 26972 ft | 502 kts | 126° |
| 2026-04-27 03:16 | -16.20292 | 49.83436 | 26973 ft | 502 kts | 125° |
| 2026-04-27 03:16 | -16.22303 | 49.86415 | 26971 ft | 502 kts | 125° |
| 2026-04-27 03:17 | -16.24308 | 49.89388 | 26967 ft | 502 kts | 125° |
| 2026-04-27 03:17 | -16.26291 | 49.92328 | 26966 ft | 502 kts | 125° |
| 2026-04-27 03:17 | -16.28297 | 49.95304 | 26966 ft | 502 kts | 125° |
| 2026-04-27 03:17 | -16.30302 | 49.98280 | 26957 ft | 502 kts | 125° |
| 2026-04-27 03:18 | -16.32306 | 50.01256 | 26957 ft | 502 kts | 125° |
| 2026-04-27 03:18 | -16.34311 | 50.04234 | 26958 ft | 502 kts | 125° |
| 2026-04-27 03:18 | -16.36306 | 50.07198 | 26674 ft | 496 kts | 125° |
| 2026-04-27 03:18 | -16.38282 | 50.10135 | 26041 ft | 494 kts | 125° |
| 2026-04-27 03:19 | -16.40246 | 50.13057 | 25459 ft | 491 kts | 125° |
| 2026-04-27 03:19 | -16.42197 | 50.15958 | 24922 ft | 486 kts | 125° |
| 2026-04-27 03:19 | -16.44122 | 50.18823 | 24515 ft | 479 kts | 124° |
| 2026-04-27 03:19 | -16.46025 | 50.21657 | 23926 ft | 476 kts | 124° |
| 2026-04-27 03:20 | -16.47921 | 50.24480 | 23372 ft | 472 kts | 124° |
| 2026-04-27 03:20 | -16.49760 | 50.27221 | 22888 ft | 465 kts | 124° |
| 2026-04-27 03:20 | -16.51612 | 50.29983 | 22210 ft | 462 kts | 124° |
| 2026-04-27 03:20 | -16.53448 | 50.32721 | 21665 ft | 457 kts | 124° |
| 2026-04-27 03:21 | -16.55257 | 50.35420 | 21174 ft | 451 kts | 124° |
| 2026-04-27 03:21 | -16.57050 | 50.38098 | 20977 ft | 449 kts | 124° |
| 2026-04-27 03:21 | -16.58839 | 50.40769 | 20943 ft | 450 kts | 124° |
| 2026-04-27 03:21 | -16.60574 | 50.43361 | 20928 ft | 449 kts | 124° |
| 2026-04-27 03:22 | -16.62365 | 50.46038 | 20904 ft | 451 kts | 124° |
| 2026-04-27 03:22 | -16.64131 | 50.48678 | 21840 ft | 452 kts | 125° |
| 2026-04-27 03:22 | -16.65919 | 50.51352 | 21636 ft | 446 kts | 125° |
| 2026-04-27 03:22 | -16.67677 | 50.53982 | 21385 ft | 439 kts | 125° |
| 2026-04-27 03:23 | -16.69416 | 50.56582 | 21135 ft | 435 kts | 125° |
| 2026-04-27 03:23 | -16.71140 | 50.59163 | 21004 ft | 434 kts | 125° |
| 2026-04-27 03:23 | -16.72866 | 50.61750 | 20997 ft | 432 kts | 127° |
| 2026-04-27 03:23 | -16.74576 | 50.64309 | 21005 ft | 432 kts | 122° |
| 2026-04-27 03:24 | -16.76311 | 50.66914 | 21001 ft | 441 kts | 122° |
| 2026-04-27 03:24 | -16.78066 | 50.69545 | 20996 ft | 441 kts | 124° |
| 2026-04-27 03:24 | -16.79809 | 50.72155 | 20999 ft | 435 kts | 125° |
| 2026-04-27 03:24 | -16.81532 | 50.74739 | 21001 ft | 433 kts | 125° |
| 2026-04-27 03:25 | -16.83248 | 50.77314 | 21001 ft | 432 kts | 124° |
| 2026-04-27 03:25 | -16.84963 | 50.79888 | 21000 ft | 432 kts | 124° |
| 2026-04-27 03:25 | -16.86678 | 50.82463 | 21000 ft | 432 kts | 124° |
| 2026-04-27 03:25 | -16.88394 | 50.85041 | 21000 ft | 432 kts | 124° |
| 2026-04-27 03:26 | -16.90109 | 50.87619 | 21000 ft | 432 kts | 124° |
| 2026-04-27 03:26 | -16.91801 | 50.90163 | 21000 ft | 432 kts | 124° |
| 2026-04-27 03:26 | -16.93522 | 50.92751 | 21000 ft | 437 kts | 124° |
| 2026-04-27 03:26 | -16.95265 | 50.95373 | 20996 ft | 443 kts | 124° |
| 2026-04-27 03:27 | -16.97029 | 50.98030 | 20998 ft | 445 kts | 124° |
| 2026-04-27 03:27 | -16.98794 | 51.00688 | 21000 ft | 445 kts | 124° |
| 2026-04-27 03:27 | -17.00561 | 51.03345 | 21000 ft | 445 kts | 124° |
| 2026-04-27 03:27 | -17.02325 | 51.05999 | 21000 ft | 445 kts | 124° |
| 2026-04-27 03:28 | -17.04091 | 51.08660 | 21000 ft | 445 kts | 124° |
| 2026-04-27 03:28 | -17.05853 | 51.11316 | 21000 ft | 445 kts | 124° |
| 2026-04-27 03:28 | -17.07615 | 51.13974 | 21000 ft | 445 kts | 124° |
| 2026-04-27 03:28 | -17.09376 | 51.16631 | 21000 ft | 445 kts | 124° |
| 2026-04-27 03:29 | -17.11136 | 51.19289 | 21000 ft | 445 kts | 124° |
| 2026-04-27 03:29 | -17.12900 | 51.21953 | 21000 ft | 445 kts | 124° |
| 2026-04-27 03:29 | -17.14660 | 51.24612 | 21000 ft | 445 kts | 124° |
| 2026-04-27 03:29 | -17.16419 | 51.27271 | 21000 ft | 445 kts | 124° |
| 2026-04-27 03:30 | -17.18158 | 51.29901 | 21000 ft | 445 kts | 124° |
| 2026-04-27 03:30 | -17.19917 | 51.32561 | 21000 ft | 445 kts | 124° |
| 2026-04-27 03:30 | -17.21675 | 51.35222 | 21000 ft | 445 kts | 124° |
| 2026-04-27 03:30 | -17.23432 | 51.37883 | 21000 ft | 445 kts | 124° |
| 2026-04-27 03:31 | -17.25190 | 51.40545 | 21000 ft | 445 kts | 124° |
| 2026-04-27 03:31 | -17.26952 | 51.43215 | 21000 ft | 445 kts | 124° |
| 2026-04-27 03:31 | -17.28717 | 51.45890 | 21000 ft | 445 kts | 124° |
| 2026-04-27 03:31 | -17.30469 | 51.48547 | 21000 ft | 445 kts | 124° |
| 2026-04-27 03:32 | -17.32229 | 51.51217 | 21000 ft | 445 kts | 124° |
| 2026-04-27 03:32 | -17.33985 | 51.53881 | 21000 ft | 445 kts | 124° |
| 2026-04-27 03:32 | -17.35720 | 51.56516 | 21000 ft | 445 kts | 124° |
| 2026-04-27 03:32 | -17.37475 | 51.59181 | 21000 ft | 445 kts | 124° |
| 2026-04-27 03:33 | -17.39230 | 51.61847 | 21000 ft | 445 kts | 124° |
| 2026-04-27 03:33 | -17.40984 | 51.64513 | 21000 ft | 445 kts | 124° |
| 2026-04-27 03:33 | -17.42739 | 51.67181 | 21000 ft | 445 kts | 124° |
| 2026-04-27 03:33 | -17.44493 | 51.69850 | 21000 ft | 445 kts | 124° |
| 2026-04-27 03:34 | -17.46264 | 51.72544 | 20998 ft | 449 kts | 124° |
| 2026-04-27 03:34 | -17.48043 | 51.75253 | 20998 ft | 451 kts | 124° |
| 2026-04-27 03:34 | -17.49797 | 51.77923 | 21000 ft | 451 kts | 124° |
| 2026-04-27 03:34 | -17.51574 | 51.80631 | 21000 ft | 451 kts | 124° |
| 2026-04-27 03:35 | -17.53351 | 51.83340 | 21000 ft | 451 kts | 124° |
| 2026-04-27 03:35 | -17.55125 | 51.86044 | 21000 ft | 451 kts | 124° |
| 2026-04-27 03:35 | -17.56900 | 51.88752 | 21000 ft | 451 kts | 124° |
| 2026-04-27 03:35 | -17.58680 | 51.91468 | 21000 ft | 451 kts | 124° |
| 2026-04-27 03:36 | -17.60455 | 51.94178 | 21000 ft | 451 kts | 124° |
| 2026-04-27 03:36 | -17.62229 | 51.96888 | 21000 ft | 451 kts | 124° |
| 2026-04-27 03:36 | -17.64006 | 51.99603 | 21000 ft | 451 kts | 124° |
| 2026-04-27 03:36 | -17.65785 | 52.02321 | 21000 ft | 451 kts | 124° |
| 2026-04-27 03:37 | -17.67556 | 52.05030 | 21000 ft | 451 kts | 124° |
| 2026-04-27 03:37 | -17.69338 | 52.07755 | 21000 ft | 451 kts | 124° |
| 2026-04-27 03:37 | -17.71108 | 52.10464 | 21008 ft | 452 kts | 124° |
| 2026-04-27 03:37 | -17.72890 | 52.13192 | 21296 ft | 455 kts | 124° |
| 2026-04-27 03:38 | -17.74657 | 52.15899 | 21896 ft | 456 kts | 124° |
| 2026-04-27 03:38 | -17.76454 | 52.18652 | 22459 ft | 459 kts | 124° |
| 2026-04-27 03:38 | -17.78263 | 52.21425 | 22872 ft | 462 kts | 124° |
| 2026-04-27 03:38 | -17.80078 | 52.24207 | 22994 ft | 462 kts | 124° |
| 2026-04-27 03:39 | -17.81899 | 52.27001 | 23001 ft | 463 kts | 124° |
| 2026-04-27 03:39 | -17.83720 | 52.29796 | 23000 ft | 464 kts | 124° |
| 2026-04-27 03:39 | -17.85542 | 52.32594 | 23001 ft | 464 kts | 124° |
| 2026-04-27 03:39 | -17.87369 | 52.35400 | 23000 ft | 464 kts | 124° |
| 2026-04-27 03:40 | -17.89186 | 52.38193 | 23000 ft | 464 kts | 124° |
| 2026-04-27 03:40 | -17.91012 | 52.41000 | 23000 ft | 464 kts | 124° |
| 2026-04-27 03:40 | -17.92813 | 52.43771 | 22999 ft | 464 kts | 124° |
| 2026-04-27 03:40 | -17.94634 | 52.46572 | 23000 ft | 464 kts | 124° |
| 2026-04-27 03:41 | -17.96458 | 52.49379 | 23000 ft | 464 kts | 124° |
| 2026-04-27 03:41 | -17.98285 | 52.52194 | 22999 ft | 464 kts | 124° |
| 2026-04-27 03:41 | -18.00105 | 52.54997 | 23000 ft | 464 kts | 124° |
| 2026-04-27 03:41 | -18.01923 | 52.57801 | 23000 ft | 464 kts | 124° |
| 2026-04-27 03:42 | -18.03742 | 52.60605 | 22999 ft | 464 kts | 124° |
| 2026-04-27 03:42 | -18.05564 | 52.63415 | 23000 ft | 464 kts | 124° |
| 2026-04-27 03:42 | -18.07357 | 52.66183 | 22999 ft | 464 kts | 124° |
| 2026-04-27 03:42 | -18.09175 | 52.68989 | 23000 ft | 464 kts | 124° |
| 2026-04-27 03:43 | -18.10995 | 52.71802 | 22999 ft | 464 kts | 124° |
| 2026-04-27 03:43 | -18.12812 | 52.74609 | 23000 ft | 464 kts | 124° |
| 2026-04-27 03:43 | -18.14628 | 52.77416 | 23000 ft | 464 kts | 124° |
| 2026-04-27 03:43 | -18.16444 | 52.80225 | 23000 ft | 464 kts | 124° |
| 2026-04-27 03:44 | -18.18259 | 52.83033 | 22999 ft | 464 kts | 124° |
| 2026-04-27 03:44 | -18.20078 | 52.85849 | 23000 ft | 464 kts | 124° |
| 2026-04-27 03:44 | -18.21892 | 52.88659 | 23000 ft | 464 kts | 124° |
| 2026-04-27 03:44 | -18.23706 | 52.91469 | 23000 ft | 464 kts | 124° |
| 2026-04-27 03:45 | -18.25524 | 52.94287 | 22999 ft | 464 kts | 124° |
| 2026-04-27 03:45 | -18.27333 | 52.97092 | 23000 ft | 464 kts | 124° |
| 2026-04-27 03:45 | -18.29125 | 52.99873 | 23000 ft | 464 kts | 124° |
| 2026-04-27 03:45 | -18.30938 | 53.02686 | 23000 ft | 464 kts | 124° |
| 2026-04-27 03:46 | -18.32750 | 53.05499 | 23001 ft | 464 kts | 124° |
| 2026-04-27 03:46 | -18.34561 | 53.08313 | 23000 ft | 464 kts | 124° |
| 2026-04-27 03:46 | -18.36372 | 53.11128 | 23000 ft | 464 kts | 124° |
| 2026-04-27 03:46 | -18.38187 | 53.13949 | 22999 ft | 464 kts | 124° |
| 2026-04-27 03:47 | -18.39997 | 53.16765 | 23000 ft | 464 kts | 124° |
| 2026-04-27 03:47 | -18.41807 | 53.19581 | 23000 ft | 464 kts | 124° |
| 2026-04-27 03:47 | -18.43612 | 53.22392 | 23000 ft | 464 kts | 124° |
| 2026-04-27 03:47 | -18.45421 | 53.25209 | 22999 ft | 464 kts | 124° |
| 2026-04-27 03:48 | -18.47242 | 53.28046 | 23000 ft | 464 kts | 124° |
| 2026-04-27 03:48 | -18.49030 | 53.30833 | 23000 ft | 464 kts | 124° |
| 2026-04-27 03:48 | -18.50838 | 53.33653 | 22999 ft | 464 kts | 124° |
| 2026-04-27 03:48 | -18.52653 | 53.36485 | 23000 ft | 464 kts | 124° |
| 2026-04-27 03:49 | -18.54456 | 53.39299 | 23000 ft | 464 kts | 124° |
| 2026-04-27 03:49 | -18.56266 | 53.42127 | 23000 ft | 464 kts | 124° |
| 2026-04-27 03:49 | -18.58073 | 53.44948 | 23000 ft | 464 kts | 124° |
| 2026-04-27 03:49 | -18.59858 | 53.47739 | 23000 ft | 464 kts | 124° |
| 2026-04-27 03:50 | -18.61687 | 53.50600 | 23000 ft | 464 kts | 124° |
| 2026-04-27 03:50 | -18.63468 | 53.53385 | 23000 ft | 464 kts | 124° |
| 2026-04-27 03:50 | -18.65273 | 53.56209 | 23000 ft | 464 kts | 124° |
| 2026-04-27 03:50 | -18.67077 | 53.59034 | 22999 ft | 464 kts | 124° |
| 2026-04-27 03:51 | -18.68884 | 53.61866 | 23000 ft | 464 kts | 124° |
| 2026-04-27 03:51 | -18.70683 | 53.64685 | 23000 ft | 464 kts | 124° |
| 2026-04-27 03:51 | -18.72486 | 53.67512 | 22999 ft | 464 kts | 124° |
| 2026-04-27 03:51 | -18.74288 | 53.70339 | 23000 ft | 464 kts | 124° |
| 2026-04-27 03:52 | -18.76094 | 53.73173 | 23000 ft | 464 kts | 124° |
| 2026-04-27 03:52 | -18.77900 | 53.76007 | 23001 ft | 464 kts | 124° |
| 2026-04-27 03:52 | -18.79701 | 53.78836 | 23000 ft | 464 kts | 124° |
| 2026-04-27 03:52 | -18.81501 | 53.81666 | 23001 ft | 464 kts | 124° |
| 2026-04-27 03:53 | -18.83303 | 53.84498 | 23000 ft | 464 kts | 124° |
| 2026-04-27 03:53 | -18.85103 | 53.87329 | 23000 ft | 464 kts | 124° |
| 2026-04-27 03:53 | -18.86903 | 53.90164 | 22999 ft | 464 kts | 124° |
| 2026-04-27 03:53 | -18.88681 | 53.92962 | 23000 ft | 464 kts | 124° |
| 2026-04-27 03:54 | -18.90481 | 53.95793 | 23000 ft | 464 kts | 124° |
| 2026-04-27 03:54 | -18.92281 | 53.98625 | 23000 ft | 464 kts | 124° |
| 2026-04-27 03:54 | -18.94088 | 54.01472 | 23000 ft | 464 kts | 124° |
| 2026-04-27 03:54 | -18.95886 | 54.04306 | 23000 ft | 464 kts | 124° |
| 2026-04-27 03:55 | -18.97683 | 54.07141 | 23000 ft | 464 kts | 124° |
| 2026-04-27 03:55 | -18.99483 | 54.09982 | 22999 ft | 464 kts | 124° |
| 2026-04-27 03:55 | -19.01279 | 54.12819 | 23000 ft | 464 kts | 124° |
| 2026-04-27 03:55 | -19.03079 | 54.15662 | 23000 ft | 464 kts | 123° |
| 2026-04-27 03:56 | -19.04854 | 54.18468 | 23000 ft | 464 kts | 123° |
| 2026-04-27 03:56 | -19.06644 | 54.21299 | 23000 ft | 464 kts | 123° |
| 2026-04-27 03:56 | -19.08438 | 54.24138 | 22999 ft | 464 kts | 123° |
| 2026-04-27 03:56 | -19.10236 | 54.26984 | 23000 ft | 464 kts | 123° |
| 2026-04-27 03:57 | -19.12033 | 54.29830 | 23000 ft | 464 kts | 123° |
| 2026-04-27 03:57 | -19.13822 | 54.32664 | 23000 ft | 464 kts | 123° |
| 2026-04-27 03:57 | -19.15622 | 54.35518 | 22999 ft | 464 kts | 123° |
| 2026-04-27 03:57 | -19.17414 | 54.38359 | 23000 ft | 464 kts | 123° |
| 2026-04-27 03:58 | -19.18601 | 54.40244 | 22999 ft | 464 kts | 123° |
| 2026-04-27 03:58 | -19.20976 | 54.44013 | 23001 ft | 464 kts | 123° |
| 2026-04-27 03:58 | -19.22775 | 54.46869 | 23000 ft | 464 kts | 123° |
| 2026-04-27 03:58 | -19.24565 | 54.49713 | 22999 ft | 464 kts | 123° |
| 2026-04-27 03:59 | -19.25747 | 54.51593 | 23000 ft | 464 kts | 123° |
| 2026-04-27 03:59 | -19.27538 | 54.54440 | 23000 ft | 464 kts | 123° |
| 2026-04-27 03:59 | -19.29334 | 54.57298 | 23000 ft | 464 kts | 123° |
| 2026-04-27 03:59 | -19.31123 | 54.60145 | 22999 ft | 464 kts | 123° |
| 2026-04-27 04:00 | -19.32911 | 54.62992 | 23000 ft | 464 kts | 123° |
| 2026-04-27 04:00 | -19.34699 | 54.65841 | 22999 ft | 464 kts | 123° |
| 2026-04-27 04:00 | -19.36486 | 54.68689 | 23000 ft | 464 kts | 123° |
| 2026-04-27 04:00 | -19.38273 | 54.71538 | 22999 ft | 464 kts | 123° |
| 2026-04-27 04:01 | -19.40059 | 54.74388 | 23000 ft | 464 kts | 123° |
| 2026-04-27 04:01 | -19.41826 | 54.77206 | 23000 ft | 464 kts | 123° |
| 2026-04-27 04:01 | -19.43615 | 54.80064 | 23000 ft | 464 kts | 123° |
| 2026-04-27 04:01 | -19.45400 | 54.82915 | 22999 ft | 464 kts | 123° |
| 2026-04-27 04:02 | -19.47188 | 54.85773 | 23000 ft | 464 kts | 123° |
| 2026-04-27 04:02 | -19.48972 | 54.88626 | 23001 ft | 464 kts | 123° |
| 2026-04-27 04:02 | -19.50760 | 54.91486 | 23000 ft | 464 kts | 123° |
| 2026-04-27 04:02 | -19.52523 | 54.94308 | 23000 ft | 464 kts | 123° |
| 2026-04-27 04:03 | -19.54306 | 54.97163 | 23000 ft | 464 kts | 123° |
| 2026-04-27 04:03 | -19.56088 | 55.00018 | 23000 ft | 464 kts | 123° |
| 2026-04-27 04:03 | -19.57894 | 55.02912 | 23000 ft | 464 kts | 123° |
| 2026-04-27 04:03 | -19.59659 | 55.05743 | 23000 ft | 464 kts | 123° |
| 2026-04-27 04:04 | -19.61436 | 55.08594 | 22999 ft | 464 kts | 123° |
| 2026-04-27 04:04 | -19.63221 | 55.11458 | 23000 ft | 464 kts | 123° |
| 2026-04-27 04:04 | -19.65005 | 55.14323 | 23000 ft | 464 kts | 123° |
| 2026-04-27 04:04 | -19.66784 | 55.17182 | 22999 ft | 464 kts | 123° |
| 2026-04-27 04:05 | -19.68563 | 55.20041 | 22999 ft | 464 kts | 123° |
| 2026-04-27 04:05 | -19.70318 | 55.22863 | 22999 ft | 464 kts | 123° |
| 2026-04-27 04:05 | -19.72100 | 55.25731 | 23000 ft | 464 kts | 123° |
| 2026-04-27 04:05 | -19.73878 | 55.28592 | 23000 ft | 464 kts | 123° |
| 2026-04-27 04:06 | -19.75655 | 55.31454 | 22999 ft | 464 kts | 123° |
| 2026-04-27 04:06 | -19.77432 | 55.34317 | 23000 ft | 464 kts | 123° |
| 2026-04-27 04:06 | -19.79212 | 55.37187 | 23000 ft | 464 kts | 123° |
| 2026-04-27 04:07 | -19.82764 | 55.42916 | 23000 ft | 464 kts | 123° |
| 2026-04-27 04:07 | -19.84539 | 55.45781 | 23000 ft | 464 kts | 123° |
| 2026-04-27 04:07 | -19.86317 | 55.48654 | 22999 ft | 464 kts | 123° |
| 2026-04-27 04:07 | -19.88091 | 55.51520 | 23000 ft | 464 kts | 123° |
| 2026-04-27 04:08 | -19.89865 | 55.54388 | 23000 ft | 464 kts | 123° |
| 2026-04-27 04:08 | -19.91638 | 55.57255 | 23000 ft | 464 kts | 123° |
| 2026-04-27 04:08 | -19.93391 | 55.60092 | 23000 ft | 464 kts | 123° |
| 2026-04-27 04:08 | -19.95163 | 55.62961 | 23000 ft | 464 kts | 123° |
| 2026-04-27 04:09 | -19.96939 | 55.65837 | 23000 ft | 464 kts | 123° |
| 2026-04-27 04:09 | -19.98710 | 55.68708 | 22999 ft | 464 kts | 123° |
| 2026-04-27 04:09 | -20.00481 | 55.71579 | 22999 ft | 464 kts | 123° |
| 2026-04-27 04:09 | -20.02255 | 55.74457 | 23000 ft | 464 kts | 123° |
| 2026-04-27 04:10 | -20.04029 | 55.77336 | 23000 ft | 464 kts | 123° |
| 2026-04-27 04:10 | -20.05799 | 55.80209 | 23000 ft | 464 kts | 123° |
| 2026-04-27 04:10 | -20.07568 | 55.83083 | 22999 ft | 464 kts | 123° |
| 2026-04-27 04:10 | -20.09316 | 55.85924 | 22974 ft | 462 kts | 123° |
| 2026-04-27 04:11 | -20.11052 | 55.88747 | 22689 ft | 450 kts | 123° |
| 2026-04-27 04:11 | -20.12742 | 55.91497 | 22426 ft | 437 kts | 123° |
| 2026-04-27 04:11 | -20.14380 | 55.94163 | 22168 ft | 424 kts | 123° |
| 2026-04-27 04:11 | -20.15975 | 55.96762 | 21936 ft | 413 kts | 123° |
| 2026-04-27 04:12 | -20.17524 | 55.99284 | 21668 ft | 402 kts | 123° |
| 2026-04-27 04:12 | -20.18983 | 56.01800 | 21219 ft | 397 kts | 117° |
| 2026-04-27 04:12 | -20.19881 | 56.04554 | 20687 ft | 394 kts | 99° |
| 2026-04-27 04:12 | -20.20077 | 56.07412 | 20195 ft | 390 kts | 91° |
| 2026-04-27 04:13 | -20.20080 | 56.10293 | 19700 ft | 387 kts | 89° |
| 2026-04-27 04:13 | -20.20064 | 56.13145 | 19200 ft | 384 kts | 90° |
| 2026-04-27 04:13 | -20.20053 | 56.15983 | 18685 ft | 381 kts | 90° |
| 2026-04-27 04:13 | -20.20049 | 56.18792 | 18198 ft | 378 kts | 90° |
| 2026-04-27 04:14 | -20.20048 | 56.21593 | 17688 ft | 375 kts | 90° |
| 2026-04-27 04:14 | -20.20050 | 56.24361 | 17186 ft | 373 kts | 90° |
| 2026-04-27 04:14 | -20.20052 | 56.27109 | 16690 ft | 370 kts | 90° |
| 2026-04-27 04:14 | -20.20055 | 56.29800 | 16180 ft | 367 kts | 90° |
| 2026-04-27 04:15 | -20.20058 | 56.32512 | 15689 ft | 364 kts | 90° |
| 2026-04-27 04:15 | -20.20061 | 56.35199 | 15167 ft | 362 kts | 90° |
| 2026-04-27 04:15 | -20.20063 | 56.37871 | 14664 ft | 359 kts | 90° |
| 2026-04-27 04:15 | -20.20065 | 56.40516 | 14152 ft | 356 kts | 90° |
| 2026-04-27 04:16 | -20.20067 | 56.43147 | 13634 ft | 353 kts | 90° |
| 2026-04-27 04:16 | -20.20068 | 56.45753 | 13119 ft | 351 kts | 90° |
| 2026-04-27 04:16 | -20.20069 | 56.48338 | 12644 ft | 347 kts | 90° |
| 2026-04-27 04:16 | -20.20069 | 56.50867 | 12421 ft | 335 kts | 90° |
| 2026-04-27 04:17 | -20.20069 | 56.53312 | 12228 ft | 324 kts | 90° |
| 2026-04-27 04:17 | -20.20069 | 56.55638 | 12037 ft | 312 kts | 90° |
| 2026-04-27 04:17 | -20.20068 | 56.57923 | 11718 ft | 306 kts | 90° |
| 2026-04-27 04:17 | -20.20067 | 56.60179 | 11321 ft | 303 kts | 90° |
| 2026-04-27 04:18 | -20.20066 | 56.62415 | 10904 ft | 301 kts | 90° |
| 2026-04-27 04:18 | -20.20065 | 56.64630 | 10484 ft | 299 kts | 90° |
| 2026-04-27 04:18 | -20.20063 | 56.66838 | 10116 ft | 296 kts | 90° |
| 2026-04-27 04:18 | -20.20061 | 56.69032 | 10012 ft | 296 kts | 90° |
| 2026-04-27 04:19 | -20.20059 | 56.71225 | 9996 ft | 296 kts | 90° |
| 2026-04-27 04:19 | -20.20057 | 56.73418 | 9999 ft | 296 kts | 90° |
| 2026-04-27 04:19 | -20.20057 | 56.75604 | 10000 ft | 296 kts | 90° |
| 2026-04-27 04:19 | -20.20055 | 56.77799 | 10000 ft | 296 kts | 90° |
| 2026-04-27 04:20 | -20.20050 | 56.79966 | 10000 ft | 296 kts | 90° |
| 2026-04-27 04:20 | -20.20046 | 56.82156 | 10000 ft | 296 kts | 90° |
| 2026-04-27 04:20 | -20.20041 | 56.84352 | 9922 ft | 297 kts | 90° |
| 2026-04-27 04:20 | -20.20037 | 56.86563 | 9428 ft | 299 kts | 90° |
| 2026-04-27 04:21 | -20.20032 | 56.88764 | 9078 ft | 294 kts | 90° |
| 2026-04-27 04:21 | -20.20027 | 56.90927 | 8682 ft | 291 kts | 90° |
| 2026-04-27 04:21 | -20.20022 | 56.93069 | 8255 ft | 289 kts | 90° |
| 2026-04-27 04:21 | -20.20017 | 56.95207 | 7821 ft | 287 kts | 90° |
| 2026-04-27 04:22 | -20.20012 | 56.97327 | 7396 ft | 285 kts | 90° |
| 2026-04-27 04:22 | -20.20006 | 56.99405 | 6976 ft | 284 kts | 90° |
| 2026-04-27 04:22 | -20.20000 | 57.01504 | 6555 ft | 282 kts | 90° |
| 2026-04-27 04:22 | -20.19995 | 57.03583 | 6160 ft | 280 kts | 90° |
| 2026-04-27 04:23 | -20.19989 | 57.05647 | 6013 ft | 279 kts | 90° |
| 2026-04-27 04:23 | -20.19982 | 57.07716 | 5999 ft | 280 kts | 90° |
| 2026-04-27 04:23 | -20.19976 | 57.09787 | 5999 ft | 279 kts | 90° |
| 2026-04-27 04:23 | -20.19969 | 57.11860 | 6002 ft | 279 kts | 90° |
| 2026-04-27 04:24 | -20.19962 | 57.13923 | 6003 ft | 279 kts | 90° |
| 2026-04-27 04:24 | -20.19955 | 57.15964 | 6049 ft | 279 kts | 90° |
| 2026-04-27 04:24 | -20.19948 | 57.18033 | 6055 ft | 279 kts | 90° |
| 2026-04-27 04:24 | -20.19940 | 57.20106 | 6055 ft | 279 kts | 90° |
| 2026-04-27 04:25 | -20.19932 | 57.22179 | 6055 ft | 279 kts | 90° |
| 2026-04-27 04:25 | -20.19924 | 57.24250 | 6032 ft | 279 kts | 90° |
| 2026-04-27 04:25 | -20.19932 | 57.26317 | 6025 ft | 279 kts | 92° |
| 2026-04-27 04:25 | -20.20336 | 57.28329 | 6025 ft | 279 kts | 114° |
| 2026-04-27 04:26 | -20.21493 | 57.29963 | 6035 ft | 278 kts | 136° |
| 2026-04-27 04:26 | -20.22891 | 57.31355 | 6018 ft | 279 kts | 132° |
| 2026-04-27 04:26 | -20.23921 | 57.33104 | 6030 ft | 279 kts | 117° |
| 2026-04-27 04:26 | -20.24825 | 57.34933 | 6027 ft | 279 kts | 118° |
| 2026-04-27 04:27 | -20.25782 | 57.36733 | 6027 ft | 279 kts | 120° |
| 2026-04-27 04:27 | -20.26792 | 57.38496 | 6027 ft | 279 kts | 122° |
| 2026-04-27 04:27 | -20.27839 | 57.40244 | 6026 ft | 279 kts | 123° |
| 2026-04-27 04:27 | -20.28897 | 57.41965 | 5654 ft | 277 kts | 123° |
| 2026-04-27 04:28 | -20.29969 | 57.43684 | 5167 ft | 278 kts | 123° |
| 2026-04-27 04:28 | -20.31036 | 57.45380 | 4881 ft | 272 kts | 124° |
| 2026-04-27 04:28 | -20.32068 | 57.47014 | 4700 ft | 257 kts | 124° |
| 2026-04-27 04:28 | -20.33028 | 57.48532 | 4503 ft | 237 kts | 124° |
| 2026-04-27 04:29 | -20.33961 | 57.49860 | 4332 ft | 215 kts | 128° |
| 2026-04-27 04:29 | -20.34727 | 57.51143 | 4216 ft | 198 kts | 119° |
| 2026-04-27 04:29 | -20.35373 | 57.52429 | 4090 ft | 196 kts | 117° |
| 2026-04-27 04:29 | -20.36002 | 57.53706 | 3942 ft | 194 kts | 117° |
| 2026-04-27 04:30 | -20.36627 | 57.54978 | 3796 ft | 194 kts | 117° |
| 2026-04-27 04:30 | -20.37250 | 57.56247 | 3640 ft | 194 kts | 117° |
| 2026-04-27 04:30 | -20.37878 | 57.57526 | 3506 ft | 194 kts | 117° |
| 2026-04-27 04:30 | -20.38502 | 57.58796 | 3359 ft | 193 kts | 117° |
| 2026-04-27 04:31 | -20.39122 | 57.60060 | 3214 ft | 193 kts | 117° |
| 2026-04-27 04:31 | -20.39710 | 57.61352 | 2915 ft | 193 kts | 115° |
| 2026-04-27 04:31 | -20.40277 | 57.62653 | 2391 ft | 196 kts | 115° |
| 2026-04-27 04:31 | -20.40883 | 57.63970 | 1565 ft | 202 kts | 117° |
| 2026-04-27 04:32 | -20.41542 | 57.65344 | 732 ft | 208 kts | 117° |
| 2026-04-27 04:32 | -20.42203 | 57.66665 | 335 ft | 196 kts | 117° |
| 2026-04-27 04:32 | -20.42785 | 57.67871 | 171 ft | 164 kts | 117° |
| 2026-04-27 04:32 | -20.43177 | 57.68674 | 146 ft | 79 kts | 117° |
| 2026-04-27 04:33 | -20.43371 | 57.69083 | 122 ft | 59 kts | 117° |
| 2026-04-27 04:33 | -20.43522 | 57.69353 | 118 ft | 24 kts | 138° |
| 2026-04-27 04:33 | -20.43624 | 57.69338 | 120 ft | 12 kts | 234° |
| 2026-04-27 04:33 | -20.43623 | 57.69199 | 122 ft | 21 kts | 297° |
| 2026-04-27 04:34 | -20.43558 | 57.69067 | 121 ft | 24 kts | 296° |
| 2026-04-27 04:34 | -20.43462 | 57.68865 | 137 ft | 33 kts | 297° |
| 2026-04-27 04:34 | -20.43356 | 57.68644 | 145 ft | 34 kts | 297° |
| 2026-04-27 04:34 | -20.43247 | 57.68417 | 152 ft | 34 kts | 298° |
| 2026-04-27 04:35 | -20.43135 | 57.68192 | 159 ft | 37 kts | 297° |
| 2026-04-27 04:35 | -20.43017 | 57.67943 | 166 ft | 31 kts | 293° |
| 2026-04-27 04:35 | -20.43037 | 57.67810 | 169 ft | 18 kts | 207° |